Time;durP1;ratioP1;P1;durP2;ratioP2;P2;SDS_P1;SDS_P2;PMS_P1;PMS_P2;Temp;Humidity;BMP_temperature;BMP_pressure;BME280_temperature;BME280_humidity;BME280_pressure;Samples;Min_cycle;Max_cycle;Signal;HPM_P1;HPM_P2
2022/08/13 00:01:25;;;;;;;1.70;0.98;;;25.20;38.50;;;;;;5054733;28;20071;-27
2022/08/13 00:03:55;;;;;;;1.20;1.10;;;25.20;38.60;;;;;;5055964;28;20021;-27
2022/08/13 00:06:58;;;;;;;1.65;1.00;;;25.20;38.70;;;;;;5056078;28;20100;-26
2022/08/13 00:09:12;;;;;;;1.23;1.20;;;25.10;38.70;;;;;;5055744;28;20520;-26
2022/08/13 00:14:31;;;;;;;2.50;1.10;;;25.00;38.90;;;;;;5056228;28;20110;-31
2022/08/13 00:16:58;;;;;;;3.28;1.38;;;24.90;39.00;;;;;;5055702;28;20405;-26
2022/08/13 00:19:26;;;;;;;1.30;1.15;;;24.90;39.20;;;;;;5054246;28;20104;-27
2022/08/13 00:21:53;;;;;;;1.55;0.93;;;24.90;39.20;;;;;;5055580;28;20071;-26
2022/08/13 00:24:19;;;;;;;1.67;1.20;;;24.90;39.30;;;;;;5055575;28;20096;-27
2022/08/13 00:26:44;;;;;;;1.25;1.00;;;24.80;39.30;;;;;;5055775;28;20132;-26
2022/08/13 00:29:10;;;;;;;1.63;1.15;;;24.80;39.50;;;;;;5054250;28;20029;-29
2022/08/13 00:31:37;;;;;;;1.02;1.00;;;24.80;39.50;;;;;;5054412;28;20028;-26
2022/08/13 00:34:03;;;;;;;2.17;1.02;;;24.80;39.60;;;;;;5055389;28;20463;-26
2022/08/13 00:36:34;;;;;;;2.65;1.17;;;24.70;39.60;;;;;;5053940;28;20021;-27
2022/08/13 00:39:01;;;;;;;1.17;0.95;;;24.70;39.70;;;;;;5055137;28;20013;-27
2022/08/13 00:41:39;;;;;;;1.17;1.08;;;24.70;39.80;;;;;;5055287;28;20033;-27
2022/08/13 00:44:08;;;;;;;3.42;1.10;;;24.60;39.80;;;;;;5055456;28;20021;-28
2022/08/13 00:46:35;;;;;;;1.48;0.98;;;24.50;39.80;;;;;;5055386;28;20159;-29
2022/08/13 00:49:03;;;;;;;1.20;1.10;;;24.50;39.90;;;;;;5055563;28;20492;-29
2022/08/13 00:51:31;;;;;;;1.65;1.20;;;24.50;40.00;;;;;;5055213;28;20129;-29
2022/08/13 00:53:58;;;;;;;1.50;0.93;;;24.50;40.10;;;;;;5054962;28;20472;-27
2022/08/13 00:56:25;;;;;;;1.55;1.10;;;24.40;40.20;;;;;;5054784;28;20036;-29
2022/08/13 00:58:51;;;;;;;1.05;0.95;;;24.40;40.10;;;;;;5054385;28;20378;-30
2022/08/13 01:01:23;;;;;;;2.30;1.10;;;24.40;40.20;;;;;;5054773;28;20464;-29
2022/08/13 01:03:49;;;;;;;4.70;1.20;;;24.30;40.30;;;;;;5053486;28;20021;-27
2022/08/13 01:06:15;;;;;;;2.58;1.05;;;24.30;40.40;;;;;;5054915;28;20025;-27
2022/08/13 01:08:41;;;;;;;3.08;1.00;;;24.30;40.50;;;;;;5054857;28;20147;-26
2022/08/13 01:11:09;;;;;;;1.13;1.00;;;24.20;40.50;;;;;;5054502;28;20040;-26
2022/08/13 01:13:37;;;;;;;3.05;1.10;;;24.20;40.60;;;;;;5054780;28;20107;-27
2022/08/13 01:16:13;;;;;;;2.72;0.98;;;24.20;40.70;;;;;;5054692;28;20068;-26
2022/08/13 01:18:42;;;;;;;1.20;0.93;;;24.10;40.80;;;;;;5054388;28;20493;-26
2022/08/13 01:21:13;;;;;;;3.22;0.90;;;24.10;40.80;;;;;;5054614;28;20377;-26
2022/08/13 01:23:39;;;;;;;2.92;1.10;;;24.00;40.90;;;;;;5054515;28;20057;-26
2022/08/13 01:26:04;;;;;;;1.30;1.10;;;24.00;41.00;;;;;;5054827;28;20017;-25
2022/08/13 01:28:30;;;;;;;2.97;1.10;;;24.00;41.10;;;;;;5054355;28;20500;-27
2022/08/13 01:31:01;;;;;;;1.85;1.00;;;23.90;41.10;;;;;;5054096;28;20032;-29
2022/08/13 01:33:27;;;;;;;1.92;0.80;;;23.90;41.20;;;;;;5054357;28;20028;-26
2022/08/13 01:35:53;;;;;;;2.05;1.10;;;23.90;41.30;;;;;;5053924;28;20036;-30
2022/08/13 01:38:23;;;;;;;3.70;1.17;;;23.80;41.40;;;;;;5054090;28;20028;-26
2022/08/13 01:40:49;;;;;;;1.17;1.08;;;23.80;41.60;;;;;;5053851;28;20043;-28
2022/08/13 01:43:17;;;;;;;2.67;1.00;;;23.80;41.60;;;;;;5052636;28;20108;-27
2022/08/13 01:45:44;;;;;;;3.10;1.10;;;23.70;41.60;;;;;;5054279;28;20025;-28
2022/08/13 01:50:55;;;;;;;1.45;1.10;;;23.70;41.80;;;;;;5053996;28;20118;-33
2022/08/13 01:53:20;;;;;;;1.48;1.02;;;23.60;41.80;;;;;;5054043;28;20075;-27
2022/08/13 01:55:55;;;;;;;2.38;1.10;;;23.50;41.90;;;;;;5053383;28;20021;-35
2022/08/13 01:58:24;;;;;;;1.92;1.00;;;23.50;42.00;;;;;;5053843;28;20404;-25
2022/08/13 02:00:55;;;;;;;1.20;1.08;;;23.50;42.10;;;;;;5054195;28;20052;-29
2022/08/13 02:03:21;;;;;;;1.00;0.90;;;23.40;42.20;;;;;;5053639;28;20104;-26
2022/08/13 02:05:48;;;;;;;1.00;1.00;;;23.40;42.20;;;;;;5053446;28;20067;-30
2022/08/13 02:08:22;;;;;;;1.40;1.30;;;23.40;42.30;;;;;;5053583;28;20025;-27
2022/08/13 02:10:50;;;;;;;0.88;0.85;;;23.30;42.30;;;;;;5053627;28;20376;-26
2022/08/13 02:13:21;;;;;;;1.65;1.20;;;23.30;42.40;;;;;;5053621;28;20599;-27
2022/08/13 02:15:48;;;;;;;2.88;1.05;;;23.30;42.50;;;;;;5053213;28;20017;-27
2022/08/13 02:18:18;;;;;;;1.15;1.05;;;23.30;42.50;;;;;;5053192;28;20063;-27
2022/08/13 02:20:50;;;;;;;1.20;1.00;;;23.30;42.60;;;;;;5053427;28;20074;-26
2022/08/13 02:23:19;;;;;;;1.23;1.00;;;23.20;42.60;;;;;;5053051;28;20498;-27
2022/08/13 02:25:46;;;;;;;2.38;0.90;;;23.20;42.60;;;;;;5052927;28;20020;-33
2022/08/13 02:28:15;;;;;;;1.55;1.00;;;23.20;42.60;;;;;;5053111;28;20066;-26
2022/08/13 02:30:42;;;;;;;3.45;1.10;;;23.10;42.60;;;;;;5053056;28;20055;-28
2022/08/13 02:33:08;;;;;;;2.70;1.10;;;23.10;42.70;;;;;;5051753;28;20029;-27
2022/08/13 02:35:35;;;;;;;4.18;1.00;;;23.10;42.70;;;;;;5053246;28;20013;-27
2022/08/13 02:38:02;;;;;;;0.88;0.80;;;23.10;42.90;;;;;;5053235;28;20075;-26
2022/08/13 02:43:12;;;;;;;1.20;0.98;;;23.00;42.90;;;;;;5053201;28;20495;-28
2022/08/13 02:45:39;;;;;;;2.45;0.95;;;23.00;43.00;;;;;;5053088;28;20021;-27
2022/08/13 02:48:05;;;;;;;1.20;0.75;;;23.00;43.10;;;;;;5052662;28;20123;-25
2022/08/13 02:50:33;;;;;;;2.67;0.90;;;22.90;43.00;;;;;;5052793;28;20017;-33
2022/08/13 02:52:59;;;;;;;1.35;1.00;;;22.90;43.10;;;;;;5052690;28;20025;-26
2022/08/13 02:55:29;;;;;;;1.15;0.90;;;22.90;43.20;;;;;;5052812;28;20072;-26
2022/08/13 02:57:55;;;;;;;1.25;0.80;;;22.80;43.30;;;;;;5052810;28;20435;-28
2022/08/13 03:00:20;;;;;;;3.53;0.93;;;22.80;43.30;;;;;;5052725;28;20021;-28
2022/08/13 03:02:46;;;;;;;0.88;0.80;;;22.80;43.40;;;;;;5052525;28;20021;-28
2022/08/13 03:05:16;;;;;;;1.10;0.95;;;22.80;43.40;;;;;;5052514;28;20025;-29
2022/08/13 03:07:47;;;;;;;1.00;0.90;;;22.70;43.50;;;;;;5051616;28;20029;-27
2022/08/13 03:10:15;;;;;;;1.95;0.90;;;22.70;43.50;;;;;;5052401;28;20119;-25
2022/08/13 03:12:48;;;;;;;1.80;1.00;;;22.70;43.60;;;;;;5052428;28;20150;-25
2022/08/13 03:15:17;;;;;;;0.82;0.82;;;22.70;43.70;;;;;;5052766;28;20051;-27
2022/08/13 03:17:44;;;;;;;0.98;0.90;;;22.60;43.60;;;;;;5052375;28;20504;-31
2022/08/13 03:20:16;;;;;;;1.27;0.80;;;22.60;43.70;;;;;;5052489;28;20029;-26
2022/08/13 03:22:52;;;;;;;0.90;0.80;;;22.60;43.80;;;;;;5052622;28;20025;-25
2022/08/13 03:25:20;;;;;;;0.98;0.80;;;22.50;43.80;;;;;;5051550;28;20013;-26
2022/08/13 03:27:47;;;;;;;1.73;0.73;;;22.50;43.80;;;;;;5052202;28;20025;-28
2022/08/13 03:30:15;;;;;;;1.42;0.80;;;22.50;43.90;;;;;;5052190;28;20025;-25
2022/08/13 03:32:42;;;;;;;1.98;1.02;;;22.50;44.00;;;;;;5052093;28;20094;-27
2022/08/13 03:35:13;;;;;;;2.00;0.63;;;22.50;44.00;;;;;;5052351;28;20063;-26
2022/08/13 03:37:40;;;;;;;4.70;0.93;;;22.40;44.00;;;;;;5052095;28;20033;-27
2022/08/13 03:40:07;;;;;;;2.28;0.80;;;22.40;44.10;;;;;;5051978;28;20037;-28
2022/08/13 03:42:33;;;;;;;0.65;0.65;;;22.40;43.60;;;;;;5052690;28;20040;-31
2022/08/13 03:44:59;;;;;;;0.82;0.80;;;22.40;44.20;;;;;;5052087;28;20100;-25
2022/08/13 03:47:25;;;;;;;0.90;0.82;;;22.40;44.30;;;;;;5052550;28;20492;-27
2022/08/13 03:49:51;;;;;;;1.67;0.80;;;22.30;44.30;;;;;;5051832;28;20025;-25
2022/08/13 03:52:16;;;;;;;1.75;0.80;;;22.30;44.30;;;;;;5051816;28;20029;-27
2022/08/13 03:54:42;;;;;;;1.25;0.80;;;22.30;44.30;;;;;;5051972;28;20090;-26
2022/08/13 03:57:08;;;;;;;4.63;1.00;;;22.30;44.40;;;;;;5051849;28;20162;-26
2022/08/13 03:59:33;;;;;;;1.88;0.90;;;22.30;44.50;;;;;;5051978;28;20053;-28
2022/08/13 04:02:02;;;;;;;1.10;0.85;;;22.20;44.50;;;;;;5051646;28;20507;-26
2022/08/13 04:04:28;;;;;;;1.02;0.90;;;22.20;44.50;;;;;;5052060;28;20013;-25
2022/08/13 04:06:54;;;;;;;1.33;0.93;;;22.20;44.60;;;;;;5051725;28;20500;-25
2022/08/13 04:09:20;;;;;;;0.80;0.80;;;22.20;44.60;;;;;;5051703;28;20040;-25
2022/08/13 04:11:48;;;;;;;1.00;0.80;;;22.10;44.60;;;;;;5051675;28;20033;-26
2022/08/13 04:14:14;;;;;;;1.85;0.80;;;22.20;44.70;;;;;;5051754;28;20036;-24
2022/08/13 04:16:42;;;;;;;1.52;0.68;;;22.10;44.70;;;;;;5051577;28;20029;-26
2022/08/13 04:19:08;;;;;;;4.40;0.90;;;22.10;44.70;;;;;;5053805;28;20067;-26
2022/08/13 04:21:37;;;;;;;1.48;0.73;;;22.10;44.80;;;;;;5055266;28;20464;-27
2022/08/13 04:24:04;;;;;;;3.30;0.80;;;22.10;44.80;;;;;;5054228;28;20495;-25
2022/08/13 04:26:30;;;;;;;0.80;0.77;;;22.10;44.90;;;;;;5055317;28;20025;-28
2022/08/13 04:28:57;;;;;;;0.70;0.70;;;22.10;45.00;;;;;;5055294;28;20021;-26
2022/08/13 04:31:23;;;;;;;1.67;0.75;;;22.10;45.00;;;;;;5055381;28;20048;-26
2022/08/13 04:33:50;;;;;;;1.00;0.90;;;22.10;45.00;;;;;;5055058;28;20021;-26
2022/08/13 04:36:16;;;;;;;3.25;1.10;;;22.10;45.00;;;;;;5053626;28;20448;-23
2022/08/13 04:38:42;;;;;;;1.92;1.00;;;22.00;45.00;;;;;;5055288;28;20096;-28
2022/08/13 04:41:07;;;;;;;3.22;0.90;;;22.00;45.10;;;;;;5054825;28;20084;-26
2022/08/13 04:43:33;;;;;;;1.42;0.88;;;22.00;45.20;;;;;;5055088;28;20494;-26
2022/08/13 04:45:59;;;;;;;1.02;0.60;;;22.00;45.20;;;;;;5055062;28;20369;-25
2022/08/13 04:48:28;;;;;;;0.90;0.80;;;22.00;45.20;;;;;;5054791;28;20446;-26
2022/08/13 04:50:53;;;;;;;1.50;0.63;;;22.00;45.50;;;;;;5054986;28;20029;-28
2022/08/13 04:53:25;;;;;;;1.65;0.95;;;22.00;45.20;;;;;;5053815;28;20455;-26
2022/08/13 04:55:52;;;;;;;1.40;0.63;;;22.00;45.20;;;;;;5055132;28;20037;-27
2022/08/13 04:58:17;;;;;;;0.93;0.57;;;22.10;45.30;;;;;;5054895;28;20461;-26
2022/08/13 05:00:45;;;;;;;1.23;0.60;;;22.10;45.30;;;;;;5054431;28;20096;-26
2022/08/13 05:03:16;;;;;;;2.88;0.80;;;22.10;45.40;;;;;;5054829;28;20449;-32
2022/08/13 05:05:44;;;;;;;0.93;0.80;;;22.10;45.50;;;;;;5054438;28;20021;-26
2022/08/13 05:08:11;;;;;;;0.98;0.77;;;22.10;45.40;;;;;;5054717;28;20420;-26
2022/08/13 05:10:40;;;;;;;1.23;0.70;;;22.10;45.50;;;;;;5054481;28;20025;-26
2022/08/13 05:13:27;;;;;;;1.35;0.75;;;22.20;45.50;;;;;;5054585;28;20029;-26
2022/08/13 05:15:55;;;;;;;0.77;0.75;;;22.10;45.50;;;;;;5054761;28;20424;-28
2022/08/13 05:18:21;;;;;;;0.90;0.85;;;22.10;45.50;;;;;;5054590;28;20041;-26
2022/08/13 05:20:46;;;;;;;0.63;0.60;;;22.10;45.50;;;;;;5054014;28;20433;-25
2022/08/13 05:23:16;;;;;;;2.45;0.90;;;22.10;45.60;;;;;;5054710;28;20512;-27
2022/08/13 05:25:42;;;;;;;1.35;0.70;;;22.10;45.60;;;;;;5054044;28;20101;-25
2022/08/13 05:28:08;;;;;;;2.85;0.90;;;22.10;45.70;;;;;;5054269;28;20410;-28
2022/08/13 05:30:37;;;;;;;1.67;0.82;;;22.10;45.70;;;;;;5051833;28;20489;-32
2022/08/13 05:33:13;;;;;;;1.10;0.90;;;22.20;45.80;;;;;;5053352;28;20025;-35
2022/08/13 05:35:39;;;;;;;1.02;0.80;;;22.20;45.80;;;;;;5054178;28;20488;-26
2022/08/13 05:38:05;;;;;;;1.35;0.73;;;22.20;45.80;;;;;;5054241;28;20044;-26
2022/08/13 05:40:32;;;;;;;1.83;0.95;;;22.20;46.40;;;;;;5053928;28;20049;-26
2022/08/13 05:42:59;;;;;;;1.23;0.80;;;22.20;45.80;;;;;;5054332;28;20439;-25
2022/08/13 05:45:25;;;;;;;0.68;0.68;;;22.30;45.80;;;;;;5054293;28;20399;-27
2022/08/13 05:47:51;;;;;;;1.20;0.77;;;22.30;45.90;;;;;;5054049;28;20107;-26
2022/08/13 05:50:17;;;;;;;1.73;0.68;;;22.30;45.90;;;;;;5054460;28;20017;-25
2022/08/13 05:52:43;;;;;;;2.75;0.63;;;22.30;45.90;;;;;;5054015;28;20044;-25
2022/08/13 05:55:11;;;;;;;0.70;0.70;;;22.30;46.00;;;;;;5052707;28;20034;-25
2022/08/13 05:57:38;;;;;;;0.95;0.70;;;22.40;46.00;;;;;;5054059;28;20083;-25
2022/08/13 06:05:35;;;;;;;0.80;0.80;;;22.40;46.00;;;;;;5053604;28;20034;-26
2022/08/13 06:08:04;;;;;;;1.23;0.70;;;22.40;46.00;;;;;;5053703;28;20033;-25
2022/08/13 06:10:30;;;;;;;1.63;0.80;;;22.50;46.10;;;;;;5053853;28;20503;-26
2022/08/13 06:12:56;;;;;;;0.65;0.65;;;22.50;46.10;;;;;;5053228;28;20029;-25
2022/08/13 06:15:22;;;;;;;0.77;0.73;;;22.50;46.10;;;;;;5053238;28;20030;-27
2022/08/13 06:17:52;;;;;;;0.90;0.60;;;22.60;46.20;;;;;;5053198;28;20025;-26
2022/08/13 06:20:20;;;;;;;0.75;0.70;;;22.60;46.80;;;;;;5052942;28;20068;-27
2022/08/13 06:22:47;;;;;;;1.92;0.82;;;22.60;46.10;;;;;;5053237;28;20491;-25
2022/08/13 06:25:16;;;;;;;1.48;0.90;;;22.60;46.10;;;;;;5053098;28;20517;-25
2022/08/13 06:27:43;;;;;;;1.40;0.70;;;22.70;46.10;;;;;;5053818;28;20052;-25
2022/08/13 06:30:11;;;;;;;2.08;0.70;;;22.70;46.10;;;;;;5053347;28;20489;-25
2022/08/13 06:32:37;;;;;;;0.88;0.82;;;22.70;46.10;;;;;;5053018;28;20086;-27
2022/08/13 06:35:05;;;;;;;1.40;0.90;;;22.70;46.10;;;;;;5051796;28;20021;-25
2022/08/13 06:37:32;;;;;;;2.25;0.90;;;22.80;46.10;;;;;;5053047;28;20031;-26
2022/08/13 06:40:00;;;;;;;0.90;0.90;;;22.80;46.10;;;;;;5052742;28;20076;-26
2022/08/13 06:42:26;;;;;;;1.60;0.95;;;22.90;46.10;;;;;;5052881;28;20025;-26
2022/08/13 06:44:54;;;;;;;2.85;0.90;;;22.90;46.00;;;;;;5053063;28;20078;-25
2022/08/13 06:47:23;;;;;;;1.00;1.00;;;23.00;46.10;;;;;;5052870;28;20029;-25
2022/08/13 06:49:49;;;;;;;1.85;0.75;;;23.00;46.10;;;;;;5052868;28;20021;-25
2022/08/13 06:52:15;;;;;;;1.10;1.00;;;23.10;46.10;;;;;;5052861;28;20426;-26
2022/08/13 06:54:40;;;;;;;1.98;0.98;;;23.10;46.00;;;;;;5051223;28;20025;-26
2022/08/13 06:57:08;;;;;;;2.38;0.90;;;23.20;46.00;;;;;;5052354;28;20103;-28
2022/08/13 06:59:36;;;;;;;3.38;1.00;;;23.30;46.00;;;;;;5052846;28;20036;-27
2022/08/13 07:02:03;;;;;;;1.75;1.10;;;23.30;45.90;;;;;;5052547;28;20039;-29
2022/08/13 07:04:29;;;;;;;1.63;1.00;;;23.40;45.90;;;;;;5052637;28;20021;-26
2022/08/13 07:06:56;;;;;;;1.30;1.17;;;23.50;46.00;;;;;;5052499;28;20028;-25
2022/08/13 07:09:22;;;;;;;2.55;1.15;;;23.50;45.90;;;;;;5052588;28;20365;-26
2022/08/13 07:11:48;;;;;;;2.08;1.10;;;23.60;45.90;;;;;;5052533;28;20029;-26
2022/08/13 07:14:15;;;;;;;1.27;1.00;;;23.60;46.50;;;;;;5052751;28;20070;-30
2022/08/13 07:16:44;;;;;;;1.70;1.10;;;23.70;45.90;;;;;;5052646;28;20043;-25
2022/08/13 07:19:11;;;;;;;2.95;1.05;;;23.70;45.80;;;;;;5052188;28;20135;-26
2022/08/13 07:21:37;;;;;;;1.98;0.95;;;23.80;45.90;;;;;;5052876;28;20101;-25
2022/08/13 07:24:04;;;;;;;1.20;1.10;;;23.80;45.80;;;;;;5052345;28;20108;-25
2022/08/13 07:26:32;;;;;;;1.75;1.08;;;23.80;45.80;;;;;;5052437;28;20043;-26
2022/08/13 07:28:59;;;;;;;3.00;1.10;;;23.90;45.80;;;;;;5052263;28;20017;-25
2022/08/13 07:31:27;;;;;;;1.75;1.20;;;23.90;45.80;;;;;;5052236;28;20461;-26
2022/08/13 07:33:56;;;;;;;1.35;1.10;;;24.00;45.80;;;;;;5052613;28;20056;-26
2022/08/13 07:36:27;;;;;;;1.17;1.08;;;24.10;45.80;;;;;;5052183;28;20051;-25
2022/08/13 07:38:53;;;;;;;2.65;1.20;;;24.10;45.80;;;;;;5052290;28;20052;-25
2022/08/13 07:41:20;;;;;;;1.50;1.00;;;24.20;45.70;;;;;;5052101;28;20389;-26
2022/08/13 07:43:47;;;;;;;3.13;1.20;;;24.30;45.70;;;;;;5052091;28;20163;-26
2022/08/13 07:46:15;;;;;;;1.95;1.00;;;24.30;45.70;;;;;;5052063;28;20518;-25
2022/08/13 07:48:43;;;;;;;0.70;0.70;;;24.30;45.70;;;;;;5052043;28;20021;-25
2022/08/13 07:51:19;;;;;;;3.63;1.00;;;24.40;45.70;;;;;;5052038;28;20031;-27
2022/08/13 07:53:47;;;;;;;1.27;1.00;;;24.40;45.70;;;;;;5054030;28;20028;-25
2022/08/13 07:56:20;;;;;;;1.70;1.20;;;24.50;45.60;;;;;;5056165;28;20116;-26
2022/08/13 07:58:46;;;;;;;1.20;1.10;;;24.60;45.60;;;;;;5055863;28;20029;-26
2022/08/13 08:01:12;;;;;;;2.20;1.10;;;24.70;45.50;;;;;;5056178;28;20044;-32
2022/08/13 08:03:42;;;;;;;1.48;0.90;;;24.70;45.50;;;;;;5055847;28;20468;-26
2022/08/13 08:06:14;;;;;;;1.20;0.90;;;24.80;45.50;;;;;;5055736;28;20044;-25
2022/08/13 08:08:42;;;;;;;1.33;1.20;;;24.80;45.40;;;;;;5055989;28;20435;-26
2022/08/13 08:11:09;;;;;;;2.15;1.00;;;24.90;45.40;;;;;;5055700;28;20025;-27
2022/08/13 08:13:35;;;;;;;1.20;0.90;;;25.00;45.30;;;;;;5054907;28;20029;-28
2022/08/13 08:16:02;;;;;;;2.50;1.10;;;25.00;45.20;;;;;;5054208;28;20025;-26
2022/08/13 08:18:28;;;;;;;2.97;1.40;;;25.10;45.20;;;;;;5055663;28;20032;-26
2022/08/13 08:21:08;;;;;;;2.55;1.08;;;25.20;45.20;;;;;;5055576;28;20350;-25
2022/08/13 08:23:36;;;;;;;1.23;1.10;;;25.20;45.10;;;;;;5055436;28;20028;-26
2022/08/13 08:26:07;;;;;;;1.30;1.20;;;25.30;45.10;;;;;;5055462;28;20020;-26
2022/08/13 08:28:34;;;;;;;1.60;1.10;;;25.40;45.00;;;;;;5055544;28;20361;-31
2022/08/13 08:31:00;;;;;;;2.17;1.02;;;25.50;44.70;;;;;;5055379;28;20025;-24
2022/08/13 08:33:26;;;;;;;3.38;1.10;;;25.60;44.70;;;;;;5055032;28;20052;-24
2022/08/13 08:35:53;;;;;;;1.90;1.40;;;25.60;44.50;;;;;;5054975;28;20377;-24
2022/08/13 08:43:53;;;;;;;1.13;1.02;;;25.90;44.40;;;;;;5055231;28;20032;-39
2022/08/13 08:46:22;;;;;;;1.52;1.13;;;26.10;44.30;;;;;;5055003;28;20024;-42
2022/08/13 08:48:48;;;;;;;1.30;1.20;;;26.10;44.00;;;;;;5055128;28;20082;-41
2022/08/13 08:51:14;;;;;;;2.65;1.23;;;26.20;44.00;;;;;;5054697;28;20039;-42
2022/08/13 08:53:44;;;;;;;3.00;1.10;;;26.30;43.90;;;;;;5054577;28;20031;-40
2022/08/13 08:56:11;;;;;;;2.05;1.20;;;26.40;43.80;;;;;;5054392;28;20033;-42
2022/08/13 08:58:40;;;;;;;2.75;1.10;;;26.50;43.80;;;;;;5054695;28;20407;-40
2022/08/13 09:01:07;;;;;;;3.00;1.15;;;26.60;43.70;;;;;;5054794;28;20021;-36
2022/08/13 09:03:36;;;;;;;4.32;1.10;;;26.70;43.50;;;;;;5054547;28;20090;-38
2022/08/13 09:06:02;;;;;;;1.42;0.90;;;26.70;43.40;;;;;;5053858;28;20033;-38
2022/08/13 09:08:31;;;;;;;1.67;1.10;;;26.80;43.30;;;;;;5054752;28;20068;-38
2022/08/13 09:10:59;;;;;;;1.02;1.00;;;26.80;43.10;;;;;;5054271;28;20017;-38
2022/08/13 09:13:25;;;;;;;1.75;0.93;;;26.90;43.10;;;;;;5054177;28;20465;-41
2022/08/13 09:15:51;;;;;;;1.00;0.90;;;27.00;42.90;;;;;;5054110;28;20473;-42
2022/08/13 09:18:18;;;;;;;1.42;0.80;;;27.10;42.80;;;;;;5054429;28;20022;-40
2022/08/13 09:20:45;;;;;;;1.27;1.13;;;27.10;42.60;;;;;;5054113;28;20033;-36
2022/08/13 09:23:13;;;;;;;1.52;0.90;;;27.10;42.40;;;;;;5054468;28;20025;-39
2022/08/13 09:25:51;;;;;;;3.28;0.93;;;27.20;42.30;;;;;;5054073;28;20021;-38
2022/08/13 09:28:26;;;;;;;0.90;0.90;;;27.30;42.20;;;;;;5054322;28;20024;-42
2022/08/13 09:30:54;;;;;;;2.80;1.02;;;27.30;42.10;;;;;;5053905;28;20028;-29
2022/08/13 09:33:21;;;;;;;1.20;1.00;;;27.30;42.00;;;;;;5054141;28;20017;-32
2022/08/13 09:35:49;;;;;;;0.95;0.77;;;27.40;41.90;;;;;;5053756;28;20024;-32
2022/08/13 09:38:15;;;;;;;1.30;1.00;;;27.50;41.80;;;;;;5052527;28;20052;-29
2022/08/13 09:41:02;;;;;;;1.80;1.08;;;27.60;41.80;;;;;;5054048;28;20110;-32
2022/08/13 09:43:38;;;;;;;1.17;1.00;;;27.80;41.70;;;;;;5053835;28;20049;-32
2022/08/13 09:46:05;;;;;;;1.63;0.85;;;27.80;41.60;;;;;;5053620;28;20021;-28
2022/08/13 09:48:30;;;;;;;1.20;1.10;;;27.90;41.40;;;;;;5053676;28;20093;-33
2022/08/13 09:50:56;;;;;;;2.60;0.80;;;28.00;41.30;;;;;;5053571;28;20103;-34
2022/08/13 09:53:25;;;;;;;1.33;0.90;;;28.00;41.20;;;;;;5053570;28;20381;-29
2022/08/13 09:55:52;;;;;;;2.50;1.00;;;28.10;41.20;;;;;;5053761;28;20025;-30
2022/08/13 09:58:18;;;;;;;1.35;0.90;;;28.20;41.10;;;;;;5052519;28;20052;-30
2022/08/13 10:00:46;;;;;;;1.88;1.10;;;28.20;40.90;;;;;;5053502;28;20037;-31
2022/08/13 10:03:14;;;;;;;1.00;0.85;;;28.30;40.70;;;;;;5053695;28;20401;-29
2022/08/13 10:05:39;;;;;;;1.33;1.08;;;28.30;40.30;;;;;;5053272;28;20021;-29
2022/08/13 10:08:12;;;;;;;0.88;0.80;;;28.40;40.10;;;;;;5053414;28;20035;-31
2022/08/13 10:10:38;;;;;;;0.80;0.65;;;28.40;39.90;;;;;;5053339;28;20536;-33
2022/08/13 10:13:03;;;;;;;0.90;0.90;;;28.40;39.80;;;;;;5053224;28;20101;-38
2022/08/13 10:15:30;;;;;;;1.70;0.98;;;28.50;39.60;;;;;;5052821;28;20108;-32
2022/08/13 10:17:58;;;;;;;0.73;0.70;;;28.60;39.30;;;;;;5053064;28;20029;-28
2022/08/13 10:20:30;;;;;;;1.00;0.90;;;28.60;39.10;;;;;;5052991;28;20025;-32
2022/08/13 10:23:01;;;;;;;2.40;0.90;;;28.70;39.10;;;;;;5053302;28;20021;-30
2022/08/13 10:25:28;;;;;;;2.00;0.70;;;28.80;39.10;;;;;;5053062;28;20025;-30
2022/08/13 10:27:55;;;;;;;0.80;0.80;;;28.90;38.90;;;;;;5052804;28;20025;-29
2022/08/13 10:30:25;;;;;;;1.15;0.85;;;28.90;38.70;;;;;;5052897;28;20059;-28
2022/08/13 10:32:55;;;;;;;1.40;0.90;;;29.00;38.40;;;;;;5052881;28;20025;-34
2022/08/13 10:35:23;;;;;;;2.80;0.82;;;29.00;38.30;;;;;;5053012;28;20033;-29
2022/08/13 10:37:53;;;;;;;1.25;0.98;;;29.00;38.20;;;;;;5052799;28;20369;-33
2022/08/13 10:40:20;;;;;;;2.70;1.00;;;29.00;38.30;;;;;;5051516;28;20495;-41
2022/08/13 10:42:46;;;;;;;1.80;0.80;;;29.10;38.90;;;;;;5052721;28;20021;-41
2022/08/13 10:45:13;;;;;;;0.80;0.80;;;29.10;38.00;;;;;;5052366;28;20430;-42
2022/08/13 10:47:54;;;;;;;0.70;0.70;;;29.20;37.80;;;;;;5051097;28;20045;-42
2022/08/13 10:50:26;;;;;;;1.85;0.63;;;29.30;37.60;;;;;;5052607;28;20405;-42
2022/08/13 10:52:52;;;;;;;1.10;0.93;;;29.40;37.30;;;;;;5052838;28;20071;-41
2022/08/13 10:55:17;;;;;;;2.60;0.90;;;29.50;37.30;;;;;;5052509;28;20025;-43
2022/08/13 10:57:45;;;;;;;2.30;0.85;;;29.50;37.30;;;;;;5052426;28;20029;-42
2022/08/13 11:00:14;;;;;;;1.95;0.70;;;29.60;37.20;;;;;;5052963;28;20119;-43
2022/08/13 11:02:40;;;;;;;1.00;0.80;;;29.60;37.00;;;;;;5052725;28;20021;-43
2022/08/13 11:05:08;;;;;;;2.55;0.80;;;29.70;36.90;;;;;;5052348;28;20028;-43
2022/08/13 11:07:36;;;;;;;0.65;0.65;;;29.70;36.80;;;;;;5052261;28;20469;-41
2022/08/13 11:10:04;;;;;;;0.90;0.68;;;29.80;36.80;;;;;;5052622;28;20025;-43
2022/08/13 11:12:30;;;;;;;3.42;0.82;;;29.90;36.70;;;;;;5052461;28;20025;-44
2022/08/13 11:14:55;;;;;;;1.48;0.80;;;30.00;36.70;;;;;;5052344;28;20031;-44
2022/08/13 11:17:22;;;;;;;1.65;0.80;;;30.10;36.60;;;;;;5052201;28;20165;-43
2022/08/13 11:19:49;;;;;;;2.75;0.55;;;30.10;36.10;;;;;;5052331;28;20022;-41
2022/08/13 11:22:16;;;;;;;3.67;0.90;;;30.20;35.80;;;;;;5052432;28;20096;-26
2022/08/13 11:24:42;;;;;;;2.30;0.73;;;30.20;35.70;;;;;;5052076;28;20106;-26
2022/08/13 11:27:07;;;;;;;0.88;0.70;;;30.40;35.70;;;;;;5052121;28;20056;-42
2022/08/13 11:29:33;;;;;;;0.77;0.77;;;30.40;35.70;;;;;;5055491;28;20478;-42
2022/08/13 11:31:58;;;;;;;0.68;0.68;;;30.50;35.60;;;;;;5056967;28;20021;-42
2022/08/13 11:34:25;;;;;;;1.38;0.70;;;30.60;35.50;;;;;;5056123;28;20025;-44
2022/08/13 11:36:51;;;;;;;0.60;0.60;;;30.60;35.40;;;;;;5056003;28;20033;-43
2022/08/13 11:39:17;;;;;;;1.75;0.90;;;30.70;35.40;;;;;;5055987;28;20124;-43
2022/08/13 11:41:43;;;;;;;0.80;0.80;;;30.80;35.60;;;;;;5055927;28;20071;-44
2022/08/13 11:44:08;;;;;;;2.00;0.80;;;30.80;35.40;;;;;;5056063;28;20549;-43
2022/08/13 11:46:34;;;;;;;1.38;0.75;;;30.90;35.30;;;;;;5056030;28;20112;-43
2022/08/13 11:49:00;;;;;;;1.33;0.80;;;31.00;35.20;;;;;;5055918;28;20495;-43
2022/08/13 11:51:25;;;;;;;1.08;0.70;;;31.10;35.10;;;;;;5056206;28;20044;-43
2022/08/13 11:53:51;;;;;;;0.90;0.60;;;31.10;35.00;;;;;;5055824;28;20025;-42
2022/08/13 11:56:17;;;;;;;2.35;0.90;;;31.20;34.90;;;;;;5055703;28;20052;-42
2022/08/13 11:58:42;;;;;;;2.72;0.98;;;31.30;34.70;;;;;;5055716;28;20032;-43
2022/08/13 12:01:08;;;;;;;0.65;0.65;;;31.30;34.50;;;;;;5055932;28;20021;-42
2022/08/13 12:03:35;;;;;;;1.83;1.08;;;31.40;34.40;;;;;;5055765;28;20100;-43
2022/08/13 12:06:01;;;;;;;2.33;0.90;;;31.40;34.30;;;;;;5055603;28;20376;-44
2022/08/13 12:08:27;;;;;;;1.13;0.80;;;31.50;34.30;;;;;;5055903;28;20025;-44
2022/08/13 12:10:52;;;;;;;0.75;0.75;;;31.70;34.20;;;;;;5055804;28;20468;-43
2022/08/13 12:13:18;;;;;;;0.65;0.65;;;31.70;34.00;;;;;;5055748;28;20021;-43
2022/08/13 12:15:43;;;;;;;0.80;0.80;;;31.80;33.90;;;;;;5055556;28;20025;-41
2022/08/13 12:18:13;;;;;;;1.75;0.80;;;31.90;33.90;;;;;;5055360;28;20104;-43
2022/08/13 12:20:39;;;;;;;1.20;0.80;;;31.90;33.60;;;;;;5055195;28;20032;-38
2022/08/13 12:23:07;;;;;;;3.63;1.00;;;32.00;33.40;;;;;;5053993;28;20017;-43
2022/08/13 12:25:32;;;;;;;0.70;0.60;;;32.10;33.40;;;;;;5054486;28;20060;-44
2022/08/13 12:28:19;;;;;;;0.65;0.65;;;32.10;33.50;;;;;;5055410;28;20049;-44
2022/08/13 12:30:47;;;;;;;1.70;0.70;;;32.20;33.40;;;;;;5055509;28;20507;-42
2022/08/13 12:33:13;;;;;;;2.10;0.60;;;32.30;33.20;;;;;;5055523;28;20029;-45
2022/08/13 12:35:39;;;;;;;1.13;0.77;;;32.30;33.00;;;;;;5055474;28;20104;-28
2022/08/13 12:38:11;;;;;;;0.90;0.75;;;32.30;32.70;;;;;;5055386;28;20056;-27
2022/08/13 12:40:38;;;;;;;1.73;0.80;;;32.40;32.30;;;;;;5054844;28;20466;-27
2022/08/13 12:43:04;;;;;;;0.93;0.73;;;32.30;32.10;;;;;;5055073;28;20013;-26
2022/08/13 12:45:30;;;;;;;0.73;0.73;;;32.40;32.30;;;;;;5055192;28;20029;-27
2022/08/13 12:48:01;;;;;;;0.80;0.80;;;32.50;32.50;;;;;;5055163;28;20036;-44
2022/08/13 12:50:27;;;;;;;0.52;0.52;;;32.60;32.30;;;;;;5053785;28;20029;-44
2022/08/13 12:52:53;;;;;;;1.02;0.60;;;32.60;32.20;;;;;;5054785;28;20043;-43
2022/08/13 12:55:18;;;;;;;0.70;0.70;;;32.70;32.10;;;;;;5054606;28;20488;-42
2022/08/13 12:57:44;;;;;;;1.25;0.90;;;32.90;32.20;;;;;;5054467;28;20132;-43
2022/08/13 13:00:10;;;;;;;2.20;0.88;;;32.90;32.00;;;;;;5054797;28;20017;-44
2022/08/13 13:02:38;;;;;;;0.82;0.82;;;33.10;32.20;;;;;;5054496;28;20032;-44
2022/08/13 13:05:04;;;;;;;0.85;0.80;;;33.20;32.10;;;;;;5054819;28;20430;-44
2022/08/13 13:07:29;;;;;;;0.80;0.80;;;33.20;32.00;;;;;;5054211;28;20056;-43
2022/08/13 13:09:55;;;;;;;0.70;0.70;;;33.30;31.90;;;;;;5054516;28;20100;-43